createdAt,value
2018-02-22T00:00:45.778Z,91.43
2018-02-22T00:01:59.799Z,91.62
2018-02-22T00:03:13.555Z,91.96
2018-02-22T00:04:27.628Z,92
2018-02-22T00:05:41.364Z,91.62
2018-02-22T00:06:55.604Z,91.05
2018-02-22T00:08:09.586Z,91.53
2018-02-22T00:09:23.333Z,92.47
2018-02-22T00:10:37.600Z,92.29
2018-02-22T00:11:51.600Z,92.1
2018-02-22T00:13:05.097Z,92.57
2018-02-22T00:14:19.325Z,92
2018-02-22T00:15:33.557Z,91.72
2018-02-22T00:16:47.811Z,91.81
2018-02-22T00:18:02.049Z,91.72
2018-02-22T00:19:16.661Z,92.1
2018-02-22T00:20:30.890Z,92.1
2018-02-22T00:21:45.350Z,91.72
2018-02-22T00:22:59.589Z,91.43
2018-02-22T00:24:13.603Z,91.62
2018-02-22T00:25:27.858Z,91.81
2018-02-22T00:26:42.612Z,91.91
2018-02-22T00:27:55.879Z,91.91
2018-02-22T00:29:09.883Z,91.81
2018-02-22T00:30:24.189Z,91.53
2018-02-22T00:31:38.417Z,91.53
2018-02-22T00:32:52.410Z,91.72
2018-02-22T00:34:06.667Z,91.81
2018-02-22T00:35:20.413Z,92.1
2018-02-22T00:36:34.985Z,92
2018-02-22T00:37:49.268Z,92.66
2018-02-22T00:39:03.249Z,92.66
2018-02-22T00:40:17.835Z,92.66
2018-02-22T00:41:32.317Z,92.66
2018-02-22T00:42:46.341Z,92.66
2018-02-22T00:44:00.336Z,93.13
2018-02-22T00:45:13.823Z,92.85
2018-02-22T00:46:28.358Z,93.13
2018-02-22T00:47:42.095Z,92.85
2018-02-22T00:48:56.574Z,92.76
2018-02-22T00:50:10.885Z,93.13
2018-02-22T00:51:25.584Z,93.13
2018-02-22T00:52:39.680Z,93.7
2018-02-22T00:53:53.450Z,93.04
2018-02-22T00:55:07.424Z,93.13
2018-02-22T00:56:21.680Z,93.51
2018-02-22T00:57:35.891Z,93.51
2018-02-22T00:58:50.092Z,93.51
2018-02-22T01:00:04.072Z,93.23
2018-02-22T01:01:18.366Z,93.04
2018-02-22T01:02:32.384Z,93.7
2018-02-22T01:03:46.896Z,92.57
2018-02-22T01:05:00.847Z,93.04
2018-02-22T01:06:15.104Z,92.76
2018-02-22T01:07:29.588Z,93.32
2018-02-22T01:08:43.818Z,93.7
2018-02-22T01:09:57.849Z,93.13
2018-02-22T01:11:11.832Z,93.04
2018-02-22T01:12:26.058Z,93.61
2018-02-22T01:13:40.323Z,93.51
2018-02-22T01:14:55.051Z,94.08
2018-02-22T01:16:08.817Z,93.61
2018-02-22T01:17:23.086Z,94.46
2018-02-22T01:18:37.105Z,94.37
2018-02-22T01:19:51.355Z,94.56
2018-02-22T01:21:05.580Z,94.56
2018-02-22T01:22:19.804Z,94.84
2018-02-22T01:23:34.021Z,94.74
2018-02-22T01:24:48.277Z,95.31
2018-02-22T01:26:02.135Z,94.93
2018-02-22T01:27:16.139Z,95.4
2018-02-22T01:28:30.344Z,95.21
2018-02-22T01:29:44.541Z,95.5
2018-02-22T01:30:58.739Z,95.21
2018-02-22T01:32:12.751Z,95.88
2018-02-22T01:33:26.971Z,95.12
2018-02-22T01:34:40.449Z,95.03
2018-02-22T01:35:54.187Z,95.21
2018-02-22T01:37:08.678Z,95.69
2018-02-22T01:38:22.920Z,95.69
2018-02-22T01:39:36.896Z,95.97
2018-02-22T01:40:51.371Z,96.07
2018-02-22T01:42:05.837Z,95.69
2018-02-22T01:43:20.320Z,96.16
2018-02-22T01:44:34.825Z,96.16
2018-02-22T01:45:49.324Z,95.78
2018-02-22T01:47:04.052Z,96.16
2018-02-22T01:48:18.054Z,96.35
2018-02-22T01:49:32.050Z,96.26
2018-02-22T01:50:45.570Z,96.26
2018-02-22T01:51:59.828Z,96.16
2018-02-22T01:53:13.808Z,96.54
2018-02-22T01:54:28.028Z,96.35
2018-02-22T01:55:42.026Z,97.3
2018-02-22T01:56:55.775Z,97.2
2018-02-22T01:58:09.755Z,96.92
2018-02-22T01:59:23.863Z,96.92
2018-02-22T02:00:37.839Z,96.92
2018-02-22T02:01:52.276Z,96.45
2018-02-22T02:03:06.252Z,96.26
2018-02-22T02:04:20.501Z,96.16
2018-02-22T02:05:34.238Z,95.88
2018-02-22T02:06:48.473Z,95.69
2018-02-22T02:08:02.703Z,95.88
2018-02-22T02:09:16.935Z,96.26
2018-02-22T02:10:31.403Z,96.54
2018-02-22T02:11:45.650Z,96.16
2018-02-22T02:12:59.632Z,95.88
2018-02-22T02:14:13.385Z,95.78
2018-02-22T02:15:27.618Z,95.97
2018-02-22T02:16:41.830Z,95.78
2018-02-22T02:17:56.563Z,95.97
2018-02-22T02:19:10.784Z,95.97
2018-02-22T02:20:25.295Z,96.16
2018-02-22T02:21:38.816Z,96.07
2018-02-22T02:22:52.763Z,95.78
2018-02-22T02:24:06.983Z,96.07
2018-02-22T02:25:21.411Z,95.88
2018-02-22T02:26:35.369Z,95.69
2018-02-22T02:27:49.631Z,95.88
2018-02-22T02:29:03.855Z,95.88
2018-02-22T02:30:18.079Z,96.35
2018-02-22T02:31:31.800Z,95.97
2018-02-22T02:32:45.894Z,96.45
2018-02-22T02:34:00.092Z,96.54
2018-02-22T02:35:14.825Z,97.11
2018-02-22T02:36:29.565Z,97.01
2018-02-22T02:37:43.776Z,96.73
2018-02-22T02:38:58.257Z,96.26
2018-02-22T02:40:12.724Z,96.16
2018-02-22T02:41:27.176Z,96.45
2018-02-22T02:42:41.655Z,96.26
2018-02-22T02:43:55.163Z,97.11
2018-02-22T02:45:09.611Z,97.11
2018-02-22T02:46:23.615Z,97.01
2018-02-22T02:47:37.824Z,96.83
2018-02-22T02:48:52.313Z,96.73
2018-02-22T02:50:06.300Z,97.2
2018-02-22T02:51:20.770Z,97.67
2018-02-22T02:52:34.277Z,97.11
2018-02-22T02:53:48.271Z,96.83
2018-02-22T02:55:02.512Z,97.39
2018-02-22T02:56:16.483Z,97.49
2018-02-22T02:57:30.709Z,97.2
2018-02-22T02:58:44.712Z,97.39
2018-02-22T02:59:59.209Z,97.49
2018-02-22T03:01:13.755Z,97.49
2018-02-22T03:02:28.258Z,97.39
2018-02-22T03:03:42.982Z,97.96
2018-02-22T03:04:57.666Z,98.05
2018-02-22T03:06:11.562Z,98.24
2018-02-22T03:07:25.804Z,98.14
2018-02-22T03:08:39.784Z,98.14
2018-02-22T03:09:54.023Z,97.96
2018-02-22T03:11:08.004Z,98.05
2018-02-22T03:12:22.495Z,98.43
2018-02-22T03:13:36.949Z,98.05
2018-02-22T03:14:50.887Z,97.96
2018-02-22T03:16:05.384Z,98.05
2018-02-22T03:17:19.370Z,98.33
2018-02-22T03:18:33.576Z,98.52
2018-02-22T03:19:48.046Z,98.43
2018-02-22T03:21:17.416Z,98.43
2018-02-22T03:22:31.625Z,98.05
2018-02-22T03:23:45.378Z,98.24
2018-02-22T03:25:00.056Z,99.28
2018-02-22T03:26:13.509Z,98.9
2018-02-22T03:27:27.754Z,99.09
2018-02-22T03:28:41.984Z,99.47
2018-02-22T03:29:56.216Z,99.66
2018-02-22T03:31:10.467Z,99.95
2018-02-22T03:32:24.945Z,99.99
2018-02-22T03:33:38.963Z,99.99
2018-02-22T03:34:53.188Z,99.99
2018-02-22T03:36:07.908Z,99.99
2018-02-22T03:37:21.922Z,99.99
2018-02-22T03:38:36.491Z,99.99
2018-02-22T03:39:50.486Z,99.99
2018-02-22T03:41:04.236Z,99.99
2018-02-22T03:42:17.998Z,99.99
2018-02-22T03:43:32.447Z,99.99
2018-02-22T03:44:46.956Z,99.99
2018-02-22T03:46:01.243Z,99.99
2018-02-22T03:47:15.617Z,99.99
2018-02-22T03:48:29.585Z,99.99
2018-02-22T03:49:43.312Z,99.99
2018-02-22T03:50:57.795Z,99.99
2018-02-22T03:52:12.025Z,99.99
2018-02-22T03:53:26.489Z,99.99
2018-02-22T03:54:40.676Z,99.99
2018-02-22T03:55:55.392Z,99.99
2018-02-22T03:57:09.846Z,99.99
2018-02-22T03:58:23.813Z,99.99
2018-02-22T03:59:37.801Z,99.99
2018-02-22T04:00:52.031Z,99.99
2018-02-22T04:02:06.028Z,99.99
2018-02-22T04:03:19.772Z,99.99
2018-02-22T04:04:33.739Z,99.99
2018-02-22T04:05:47.708Z,99.99
2018-02-22T04:07:01.950Z,99.99
2018-02-22T04:08:15.939Z,99.99
2018-02-22T04:09:29.179Z,99.99
2018-02-22T04:10:43.160Z,99.99
2018-02-22T04:11:57.025Z,99.99
2018-02-22T04:13:11.008Z,99.99
2018-02-22T04:14:24.478Z,99.99
2018-02-22T04:15:38.004Z,99.99
2018-02-22T04:16:52.495Z,99.99
2018-02-22T04:18:06.707Z,99.99
2018-02-22T04:19:20.797Z,99.99
2018-02-22T04:20:34.565Z,99.99
2018-02-22T04:21:48.558Z,99.99
2018-02-22T04:23:02.778Z,99.99
2018-02-22T04:24:17.248Z,99.99
2018-02-22T04:25:30.773Z,99.99
2018-02-22T04:26:44.747Z,99.99
2018-02-22T04:27:58.720Z,99.99
2018-02-22T04:29:12.958Z,99.99
2018-02-22T04:30:27.167Z,99.99
2018-02-22T04:31:41.631Z,99.99
2018-02-22T04:32:55.932Z,99.99
2018-02-22T04:34:10.339Z,99.99
2018-02-22T04:35:56.954Z,99.99
2018-02-22T04:37:11.464Z,99.99
2018-02-22T04:38:25.770Z,99.99
2018-02-22T04:39:40.226Z,99.99
2018-02-22T04:40:54.225Z,99.99
2018-02-22T04:42:08.722Z,99.99
2018-02-22T04:43:22.470Z,99.99
2018-02-22T04:44:42.500Z,99.99
2018-02-22T04:45:56.539Z,99.99
2018-02-22T04:47:10.556Z,99.99
2018-02-22T04:48:25.040Z,99.99
2018-02-22T04:49:39.069Z,99.99
2018-02-22T04:50:52.344Z,99.99
2018-02-22T04:52:06.107Z,99.99
2018-02-22T04:53:19.894Z,99.99
2018-02-22T04:54:33.889Z,99.99
2018-02-22T04:55:47.862Z,99.99
2018-02-22T04:57:01.883Z,99.99
2018-02-22T04:58:16.111Z,99.99
2018-02-22T04:59:30.612Z,99.99
2018-02-22T05:00:44.867Z,99.99
2018-02-22T05:01:59.112Z,99.99
2018-02-22T05:03:12.394Z,99.95
2018-02-22T05:04:26.375Z,99.99
2018-02-22T05:05:40.374Z,99.99
2018-02-22T05:06:54.894Z,99.99
2018-02-22T05:08:08.873Z,99.99
2018-02-22T05:09:23.360Z,99.99
2018-02-22T05:10:37.327Z,99.99
2018-02-22T05:11:51.333Z,99.57
2018-02-22T05:13:05.600Z,98.71
2018-02-22T05:14:20.119Z,99.09
2018-02-22T05:15:34.112Z,99.19
2018-02-22T05:16:48.591Z,99.19
2018-02-22T05:18:02.683Z,99.28
2018-02-22T05:19:16.667Z,99.09
2018-02-22T05:20:30.904Z,99.19
2018-02-22T05:21:44.894Z,99.28
2018-02-22T05:22:59.399Z,99.09
2018-02-22T05:24:13.923Z,98.24
2018-02-22T05:25:27.931Z,98.43
2018-02-22T05:26:41.424Z,98.43
2018-02-22T05:27:55.644Z,99.09
2018-02-22T05:29:09.899Z,98.28
2018-02-22T05:30:24.674Z,98.14
2018-02-22T05:31:38.702Z,98.38
2018-02-22T05:32:53.212Z,98.43
2018-02-22T05:34:07.513Z,97.67
2018-02-22T05:35:21.292Z,97.77
2018-02-22T05:36:35.017Z,98.24
2018-02-22T05:37:49.482Z,98.05
2018-02-22T05:39:03.992Z,97.96
2018-02-22T05:40:18.020Z,98.14
2018-02-22T05:41:32.494Z,97.2
2018-02-22T05:42:46.499Z,97.58
2018-02-22T05:44:00.749Z,97.77
2018-02-22T05:45:14.754Z,97.39
2018-02-22T05:46:28.533Z,97.49
2018-02-22T05:47:42.066Z,97.3
2018-02-22T05:48:56.328Z,97.2
2018-02-22T05:50:10.833Z,97.2
2018-02-22T05:51:25.454Z,97.01
2018-02-22T05:52:39.444Z,96.92
2018-02-22T05:53:53.756Z,97.11
2018-02-22T05:55:07.536Z,97.2
2018-02-22T05:56:21.627Z,97.58
2018-02-22T05:57:35.881Z,96.92
2018-02-22T05:58:50.588Z,97.58
2018-02-22T06:00:04.851Z,98.05
2018-02-22T06:01:19.107Z,98.05
2018-02-22T06:02:33.425Z,98.05
2018-02-22T06:03:47.955Z,97.96
2018-02-22T06:05:02.194Z,98.43
2018-02-22T06:06:16.465Z,99.28
2018-02-22T06:07:30.678Z,99.19
2018-02-22T06:08:45.159Z,99.28
2018-02-22T06:09:58.913Z,99
2018-02-22T06:11:13.157Z,99
2018-02-22T06:12:27.165Z,98.9
2018-02-22T06:13:41.655Z,99
2018-02-22T06:14:55.719Z,99.52
2018-02-22T06:16:09.760Z,99.85
2018-02-22T06:17:24.481Z,99.99
2018-02-22T06:18:38.472Z,99.99
2018-02-22T06:19:53.221Z,99.99
2018-02-22T06:21:07.213Z,99.99
2018-02-22T06:22:21.244Z,99.99
2018-02-22T06:23:35.282Z,99.99
2018-02-22T06:24:49.650Z,99.99
2018-02-22T06:26:04.391Z,99.99
2018-02-22T06:27:18.165Z,99.99
2018-02-22T06:28:32.157Z,99.99
2018-02-22T06:29:46.654Z,99.99
2018-02-22T06:31:00.899Z,99.99
2018-02-22T06:32:15.180Z,99.99
2018-02-22T06:33:29.215Z,99.99
2018-02-22T06:34:42.970Z,99.99
2018-02-22T06:35:57.229Z,99.99
2018-02-22T06:37:11.205Z,99.99
2018-02-22T06:38:25.705Z,99.99
2018-02-22T06:39:39.952Z,99.99
2018-02-22T06:40:54.221Z,99.99
2018-02-22T06:42:07.949Z,99.99
2018-02-22T06:43:22.439Z,99.99
2018-02-22T06:44:36.698Z,99.99
2018-02-22T06:45:50.952Z,99.99
2018-02-22T06:47:04.972Z,99.99
2018-02-22T06:48:19.227Z,99.99
2018-02-22T06:49:33.727Z,99.99
2018-02-22T06:50:47.942Z,99.99
2018-02-22T06:52:02.168Z,99.99
2018-02-22T06:53:15.657Z,99.99
2018-02-22T06:54:29.881Z,99.99
2018-02-22T06:55:43.872Z,99.99
2018-02-22T06:56:58.150Z,99.99
2018-02-22T06:58:12.513Z,99.99
2018-02-22T06:59:26.775Z,99.99
2018-02-22T07:00:40.780Z,99.95
2018-02-22T07:01:55.012Z,99.99
2018-02-22T07:03:08.478Z,99.99
2018-02-22T07:04:22.736Z,99.95
2018-02-22T07:05:36.733Z,99
2018-02-22T07:06:50.750Z,99.09
2018-02-22T07:08:04.521Z,99
2018-02-22T07:09:19.056Z,98.05
2018-02-22T07:10:33.277Z,98.43
2018-02-22T07:11:47.788Z,97.96
2018-02-22T07:13:01.808Z,97.86
2018-02-22T07:14:16.565Z,97.49
2018-02-22T07:15:31.073Z,96.35
2018-02-22T07:16:44.857Z,95.78
2018-02-22T07:17:58.388Z,96.45
2018-02-22T07:19:12.883Z,96.92
2018-02-22T07:20:26.685Z,96.64
2018-02-22T07:21:40.821Z,96.45
2018-02-22T07:22:55.320Z,96.64
2018-02-22T07:24:21.987Z,95.59
2018-02-22T07:25:36.045Z,95.69
2018-02-22T07:26:50.578Z,95.97
2018-02-22T07:28:05.470Z,96.07
2018-02-22T07:29:19.263Z,95.5
2018-02-22T07:30:33.608Z,94.74
2018-02-22T07:31:47.852Z,95.21
2018-02-22T07:33:02.101Z,94.93
2018-02-22T07:34:16.239Z,95.5
2018-02-22T07:35:30.546Z,95.59
2018-02-22T07:36:45.020Z,95.03
2018-02-22T07:37:59.006Z,94.84
2018-02-22T07:39:12.978Z,94.93
2018-02-22T07:40:27.474Z,95.69
2018-02-22T07:41:41.222Z,95.59
2018-02-22T07:42:55.478Z,94.84
2018-02-22T07:44:09.766Z,94.37
2018-02-22T07:45:23.750Z,94.74
2018-02-22T07:46:38.231Z,94.46
2018-02-22T07:47:51.481Z,94.74
2018-02-22T07:49:19.873Z,94.56
2018-02-22T07:50:33.862Z,94.37
2018-02-22T07:51:47.869Z,93.8
2018-02-22T07:53:02.124Z,94.56
2018-02-22T07:54:16.628Z,94.46
2018-02-22T07:55:30.905Z,94.08
2018-02-22T07:56:45.147Z,94.18
2018-02-22T07:57:59.444Z,93.99
2018-02-22T07:59:12.953Z,93.7
2018-02-22T08:00:26.932Z,93.51
2018-02-22T08:01:40.705Z,93.51
2018-02-22T08:02:55.065Z,93.7
2018-02-22T08:04:09.553Z,92.99
2018-02-22T08:05:23.830Z,92.8
2018-02-22T08:06:37.849Z,92.99
2018-02-22T08:07:51.353Z,92.61
2018-02-22T08:09:05.371Z,92.9
2018-02-22T08:10:19.384Z,92.52
2018-02-22T08:11:33.697Z,93.28
2018-02-22T08:12:47.702Z,92.71
2018-02-22T08:14:01.999Z,93.18
2018-02-22T08:15:16.318Z,93.28
2018-02-22T08:16:30.632Z,92.61
2018-02-22T08:17:44.633Z,92.9
2018-02-22T08:18:59.182Z,92.99
2018-02-22T08:20:13.201Z,93.09
2018-02-22T08:21:27.234Z,92.8
2018-02-22T08:22:41.489Z,93.18
2018-02-22T08:23:55.995Z,93.09
2018-02-22T08:25:09.486Z,92.61
2018-02-22T08:26:23.521Z,92.71
2018-02-22T08:27:37.779Z,92.61
2018-02-22T08:28:51.791Z,92.61
2018-02-22T08:30:05.785Z,92.43
2018-02-22T08:31:20.046Z,92.71
2018-02-22T08:32:34.077Z,92.71
2018-02-22T08:33:48.071Z,92.52
2018-02-22T08:35:01.614Z,92.61
2018-02-22T08:36:16.271Z,92.8
2018-02-22T08:37:30.314Z,91.96
2018-02-22T08:38:44.835Z,92.14
2018-02-22T08:39:58.857Z,92.05
2018-02-22T08:41:13.305Z,92.14
2018-02-22T08:42:26.832Z,92.05
2018-02-22T08:43:41.076Z,90.72
2018-02-22T08:44:55.847Z,90.72
2018-02-22T08:46:10.591Z,90.44
2018-02-22T08:47:25.079Z,90.16
2018-02-22T08:48:39.352Z,89.21
2018-02-22T08:49:53.851Z,89.02
2018-02-22T08:51:08.398Z,88.36
2018-02-22T08:52:22.441Z,87.7
2018-02-22T08:53:36.942Z,86.18
2018-02-22T08:54:51.192Z,85.24
2018-02-22T08:56:04.706Z,84.29
2018-02-22T08:57:19.204Z,83.53
2018-02-22T08:58:33.422Z,82.68
2018-02-22T08:59:47.910Z,82.59
2018-02-22T09:01:01.651Z,82.97
2018-02-22T09:02:15.919Z,82.4
2018-02-22T09:03:29.677Z,82.12
2018-02-22T09:04:43.463Z,81.74
2018-02-22T09:05:57.435Z,81.83
2018-02-22T09:07:11.924Z,81.93
2018-02-22T09:08:26.169Z,82.06
2018-02-22T09:09:40.026Z,81.21
2018-02-22T09:10:54.281Z,80.55
2018-02-22T09:12:08.565Z,80.45
2018-02-22T09:13:22.575Z,80.32
2018-02-22T09:14:37.047Z,80.41
2018-02-22T09:15:51.264Z,80.22
2018-02-22T09:17:04.830Z,80.17
2018-02-22T09:18:18.624Z,79.88
2018-02-22T09:19:32.425Z,79.32
2018-02-22T09:20:46.411Z,79.69
2018-02-22T09:22:00.391Z,79.32
2018-02-22T09:23:14.414Z,79.22
2018-02-22T09:24:29.140Z,78.9
2018-02-22T09:25:43.388Z,79.56
2018-02-22T09:26:57.874Z,79.69
2018-02-22T09:28:11.884Z,79.03
2018-02-22T09:29:26.352Z,78.75
2018-02-22T09:30:40.586Z,78.94
2018-02-22T09:31:55.306Z,78.37
2018-02-22T09:33:09.326Z,78.46
2018-02-22T09:34:23.354Z,78.18
2018-02-22T09:35:36.896Z,77.99
2018-02-22T09:36:51.628Z,77.89
2018-02-22T09:38:05.414Z,77.99
2018-02-22T09:39:19.396Z,78.18
2018-02-22T09:40:33.448Z,78.75
2018-02-22T09:41:47.989Z,78.18
2018-02-22T09:43:02.391Z,77.89
2018-02-22T09:44:16.166Z,77.99
2018-02-22T09:45:30.425Z,77.8
2018-02-22T09:46:44.163Z,78.18
2018-02-22T09:47:58.161Z,77.89
2018-02-22T09:49:12.715Z,78.56
2018-02-22T09:50:26.255Z,78.46
2018-02-22T09:51:40.781Z,78.46
2018-02-22T09:52:54.328Z,78.37
2018-02-22T09:54:07.843Z,77.89
2018-02-22T09:55:41.800Z,77.7
2018-02-22T09:56:56.120Z,77.51
2018-02-22T09:58:09.854Z,78.18
2018-02-22T09:59:24.333Z,77.8
2018-02-22T10:00:38.347Z,77.51
2018-02-22T10:01:52.112Z,77.61
2018-02-22T10:03:06.583Z,77.7
2018-02-22T10:04:21.087Z,78.08
2018-02-22T10:05:35.354Z,77.7
2018-02-22T10:06:49.326Z,77.7
2018-02-22T10:08:03.582Z,76.67
2018-02-22T10:09:18.334Z,77.33
2018-02-22T10:10:32.341Z,77.51
2018-02-22T10:11:46.307Z,76.86
2018-02-22T10:13:00.100Z,76.38
2018-02-22T10:14:14.352Z,77.33
2018-02-22T10:15:28.448Z,77.42
2018-02-22T10:16:42.199Z,76.42
2018-02-22T10:17:56.226Z,76.42
2018-02-22T10:19:10.038Z,76.42
2018-02-22T10:20:24.501Z,75.66
2018-02-22T10:21:39.017Z,75.38
2018-02-22T10:22:53.033Z,75.53
2018-02-22T10:24:06.538Z,76
2018-02-22T10:25:20.552Z,76.19
2018-02-22T10:26:34.854Z,76.57
2018-02-22T10:27:49.607Z,76.19
2018-02-22T10:29:03.593Z,76.1
2018-02-22T10:30:17.584Z,77.23
2018-02-22T10:31:31.836Z,77.04
2018-02-22T10:32:45.823Z,77.04
2018-02-22T10:33:59.818Z,76.95
2018-02-22T10:35:13.831Z,76.7
2018-02-22T10:36:27.835Z,76.04
2018-02-22T10:37:41.874Z,75.66
2018-02-22T10:38:55.861Z,75.47
2018-02-22T10:40:09.936Z,75.47
2018-02-22T10:41:23.969Z,74.62
2018-02-22T10:42:38.460Z,74.05
2018-02-22T10:43:52.675Z,74.15
2018-02-22T10:45:07.154Z,74.43
2018-02-22T10:46:21.632Z,74.33
2018-02-22T10:47:36.121Z,74.62
2018-02-22T10:48:50.251Z,74.43
2018-02-22T10:50:04.012Z,74.81
2018-02-22T10:51:18.328Z,74.33
2018-02-22T10:52:32.820Z,75
2018-02-22T10:53:46.838Z,74.05
2018-02-22T10:55:00.612Z,74.15
2018-02-22T10:56:14.836Z,74.62
2018-02-22T10:57:28.837Z,74.9
2018-02-22T10:58:43.329Z,75
2018-02-22T10:59:57.575Z,74.15
2018-02-22T11:01:12.089Z,73.58
2018-02-22T11:02:26.416Z,73.68
2018-02-22T11:03:40.424Z,73.58
2018-02-22T11:04:54.741Z,73.2
2018-02-22T11:06:08.728Z,73.01
2018-02-22T11:07:22.975Z,73.68
2018-02-22T11:08:36.991Z,73.2
2018-02-22T11:09:51.092Z,73.3
2018-02-22T11:11:05.084Z,71.91
2018-02-22T11:12:19.329Z,71.15
2018-02-22T11:13:33.365Z,71.59
2018-02-22T11:14:47.297Z,71.88
2018-02-22T11:16:01.326Z,71.78
2018-02-22T11:17:15.074Z,71.69
2018-02-22T11:18:29.812Z,71.59
2018-02-22T11:19:43.599Z,71.88
2018-02-22T11:20:58.160Z,71.78
2018-02-22T11:22:12.009Z,71.31
2018-02-22T11:23:26.027Z,70.26
2018-02-22T11:24:39.534Z,70.39
2018-02-22T11:25:53.920Z,70.97
2018-02-22T11:27:07.721Z,71.44
2018-02-22T11:28:21.997Z,70.49
2018-02-22T11:29:36.513Z,69.35
2018-02-22T11:30:50.728Z,68.59
2018-02-22T11:32:04.812Z,69.54
2018-02-22T11:33:18.850Z,69.82
2018-02-22T11:34:33.088Z,70.11
2018-02-22T11:35:47.897Z,70.01
2018-02-22T11:37:16.852Z,69.73
2018-02-22T11:38:31.108Z,68.59
2018-02-22T11:39:45.920Z,69.35
2018-02-22T11:41:00.320Z,69.54
2018-02-22T11:42:14.584Z,69.82
2018-02-22T11:43:28.806Z,69.82
2018-02-22T11:44:43.159Z,70.39
2018-02-22T11:45:57.677Z,68.59
2018-02-22T11:47:11.951Z,68.21
2018-02-22T11:48:26.421Z,68.21
2018-02-22T11:49:41.133Z,67.27
2018-02-22T11:50:55.619Z,67.74
2018-02-22T11:52:10.111Z,67.46
2018-02-22T11:53:24.376Z,68.02
2018-02-22T11:54:39.013Z,68.79
2018-02-22T11:55:53.269Z,69.45
2018-02-22T11:57:07.567Z,69.35
2018-02-22T11:58:21.871Z,68.98
2018-02-22T11:59:35.906Z,69.32
2018-02-22T12:00:49.945Z,68.59
2018-02-22T12:02:04.427Z,68.84
2018-02-22T12:03:18.773Z,68.59
2018-02-22T12:04:32.818Z,68.69
2018-02-22T12:05:46.904Z,68.5
2018-02-22T12:07:00.927Z,68.79
2018-02-22T12:08:15.459Z,68.31
2018-02-22T12:09:30.513Z,68.4
2018-02-22T12:10:44.292Z,68.59
2018-02-22T12:11:58.811Z,68.5
2018-02-22T12:13:27.543Z,68.69
2018-02-22T12:14:41.884Z,68.5
2018-02-22T12:15:56.163Z,68.59
2018-02-22T12:17:10.961Z,68.21
2018-02-22T12:18:24.526Z,68.5
2018-02-22T12:19:38.776Z,68.65
2018-02-22T12:20:53.326Z,68.5
2018-02-22T12:22:07.422Z,68.84
2018-02-22T12:23:21.910Z,69.51
2018-02-22T12:24:35.911Z,69.32
2018-02-22T12:25:50.191Z,69.03
2018-02-22T12:27:04.884Z,69.41
2018-02-22T12:28:18.662Z,69.17
2018-02-22T12:29:33.130Z,69.35
2018-02-22T12:30:46.900Z,69.6
2018-02-22T12:32:01.655Z,69.41
2018-02-22T12:33:16.178Z,69.26
2018-02-22T12:34:30.693Z,68.88
2018-02-22T12:35:44.952Z,68.69
2018-02-22T12:36:58.968Z,68.69
2018-02-22T12:38:12.964Z,67.83
2018-02-22T12:39:27.508Z,67.83
2018-02-22T12:40:42.221Z,67.93
2018-02-22T12:41:56.454Z,67.36
2018-02-22T12:43:10.482Z,67.74
2018-02-22T12:44:24.496Z,67.83
2018-02-22T12:45:39.344Z,68.02
2018-02-22T12:46:53.122Z,67.83
2018-02-22T12:48:06.925Z,67.93
2018-02-22T12:49:20.668Z,68.21
2018-02-22T12:50:34.964Z,68.02
2018-02-22T12:51:49.308Z,67.93
2018-02-22T12:53:03.791Z,67.65
2018-02-22T12:54:17.523Z,67.18
2018-02-22T12:55:32.021Z,66.89
2018-02-22T12:56:46.034Z,66.6
2018-02-22T12:58:00.620Z,67.08
2018-02-22T12:59:14.608Z,67.18
2018-02-22T13:00:28.698Z,66.8
2018-02-22T13:01:42.727Z,66.6
2018-02-22T13:02:56.743Z,66.8
2018-02-22T13:04:10.803Z,67.27
2018-02-22T13:05:24.310Z,67.08
2018-02-22T13:06:38.565Z,66.8
2018-02-22T13:07:53.153Z,66.32
2018-02-22T13:09:06.681Z,66.89
2018-02-22T13:10:20.726Z,66.51
2018-02-22T13:11:34.960Z,66.6
2018-02-22T13:12:48.701Z,66.32
2018-02-22T13:14:02.971Z,66.6
2018-02-22T13:15:17.198Z,66.32
2018-02-22T13:16:31.987Z,66.13
2018-02-22T13:17:45.989Z,66.32
2018-02-22T13:19:00.271Z,65.94
2018-02-22T13:20:14.516Z,65.94
2018-02-22T13:21:29.049Z,66.22
2018-02-22T13:22:43.873Z,66.13
2018-02-22T13:23:58.178Z,65.47
2018-02-22T13:25:12.681Z,65.47
2018-02-22T13:26:26.456Z,65.28
2018-02-22T13:27:40.754Z,65.56
2018-02-22T13:28:55.119Z,65.56
2018-02-22T13:30:09.410Z,65.19
2018-02-22T13:31:23.465Z,64.14
2018-02-22T13:32:37.241Z,63.85
2018-02-22T13:33:51.607Z,63.85
2018-02-22T13:35:06.720Z,63.95
2018-02-22T13:36:20.993Z,64.23
2018-02-22T13:37:35.497Z,64.04
2018-02-22T13:38:49.999Z,63.95
2018-02-22T13:40:04.274Z,63.29
2018-02-22T13:41:18.557Z,63.29
2018-02-22T13:42:33.359Z,63.1
2018-02-22T13:43:47.336Z,63.57
2018-02-22T13:47:29.389Z,63.85
2018-02-22T13:48:43.412Z,63.85
2018-02-22T13:49:57.662Z,64.14
2018-02-22T13:51:11.948Z,64.81
2018-02-22T13:52:26.536Z,64.14
2018-02-22T13:53:40.881Z,64.14
2018-02-22T13:54:54.440Z,64.08
2018-02-22T13:56:08.213Z,63.89
2018-02-22T13:57:22.749Z,63.6
2018-02-22T13:58:36.596Z,63.23
2018-02-22T13:59:51.132Z,62.91
2018-02-22T14:01:04.894Z,63.1
2018-02-22T14:02:19.419Z,63.1
2018-02-22T14:03:32.957Z,63.13
2018-02-22T14:04:47.282Z,62.82
2018-02-22T14:06:01.778Z,63.67
2018-02-22T14:07:16.384Z,63.67
2018-02-22T14:08:30.896Z,63.95
2018-02-22T14:09:44.928Z,63.98
2018-02-22T14:10:59.835Z,64.14
2018-02-22T14:12:13.838Z,64.04
2018-02-22T14:13:28.285Z,64.17
2018-02-22T14:14:42.268Z,64.17
2018-02-22T14:15:56.031Z,64.61
2018-02-22T14:17:10.138Z,64.52
2018-02-22T14:18:23.879Z,64.74
2018-02-22T14:19:38.616Z,64.27
2018-02-22T14:20:52.350Z,64.27
2018-02-22T14:22:06.594Z,64.74
2018-02-22T14:23:21.164Z,63.23
2018-02-22T14:24:35.408Z,63.13
2018-02-22T14:25:49.140Z,62.85
2018-02-22T14:27:02.887Z,62.85
2018-02-22T14:28:17.159Z,63.51
2018-02-22T14:29:31.813Z,63.89
2018-02-22T14:30:45.814Z,63.98
2018-02-22T14:31:59.600Z,63.89
2018-02-22T14:33:13.607Z,63.7
2018-02-22T14:34:27.633Z,63.79
2018-02-22T14:35:42.691Z,63.79
2018-02-22T14:36:57.276Z,63.42
2018-02-22T14:38:11.274Z,63.89
2018-02-22T14:39:25.284Z,63.6
2018-02-22T14:40:38.957Z,63.98
2018-02-22T14:41:53.281Z,63.79
2018-02-22T14:43:07.540Z,63.79
2018-02-22T14:44:21.301Z,63.79
2018-02-22T14:45:35.698Z,64.36
2018-02-22T14:46:50.220Z,63.98
2018-02-22T14:48:04.804Z,64.08
2018-02-22T14:49:18.557Z,64.27
2018-02-22T14:50:32.596Z,64.17
2018-02-22T14:51:46.332Z,63.98
2018-02-22T14:53:00.571Z,64.08
2018-02-22T14:54:15.370Z,64.17
2018-02-22T14:55:29.141Z,64.74
2018-02-22T14:56:42.880Z,64.74
2018-02-22T14:57:56.874Z,64.65
2018-02-22T14:59:11.134Z,64.65
2018-02-22T15:00:25.919Z,64.74
2018-02-22T15:01:39.952Z,64.74
2018-02-22T15:02:54.211Z,64.55
2018-02-22T15:04:08.730Z,64.65
2018-02-22T15:05:22.984Z,64.17
2018-02-22T15:06:37.515Z,64.71
2018-02-22T15:07:51.563Z,65.12
2018-02-22T15:09:05.846Z,65
2018-02-22T15:10:20.338Z,64.84
2018-02-22T15:11:33.871Z,64.9
2018-02-22T15:12:48.666Z,64.71
2018-02-22T15:14:03.294Z,64.14
2018-02-22T15:15:17.065Z,64.04
2018-02-22T15:16:31.316Z,64.42
2018-02-22T15:17:45.371Z,64.42
2018-02-22T15:19:00.179Z,65.09
2018-02-22T15:20:14.689Z,64.74
2018-02-22T15:21:28.967Z,64.55
2018-02-22T15:22:42.745Z,64.71
2018-02-22T15:23:57.022Z,64.14
2018-02-22T15:25:11.801Z,64.04
2018-02-22T15:26:25.624Z,63.85
2018-02-22T15:27:39.418Z,64.14
2018-02-22T15:28:53.652Z,64.23
2018-02-22T15:30:07.168Z,64.71
2018-02-22T15:31:21.740Z,64.61
2018-02-22T15:32:36.279Z,64.42
2018-02-22T15:33:50.005Z,64.14
2018-02-22T15:35:05.424Z,63.85
2018-02-22T15:36:19.669Z,64.04
2018-02-22T15:37:34.215Z,64.71
2018-02-22T15:38:49.053Z,64.61
2018-02-22T15:40:02.576Z,64.71
2018-02-22T15:41:16.833Z,64.42
2018-02-22T15:42:30.856Z,64.9
2018-02-22T15:43:45.622Z,64.9
2018-02-22T15:44:59.925Z,64.9
2018-02-22T15:46:14.198Z,65.09
2018-02-22T15:47:28.340Z,64.9
2018-02-22T15:48:42.688Z,65
2018-02-22T15:49:57.237Z,64.71
2018-02-22T15:51:10.744Z,64.71
2018-02-22T15:52:25.076Z,65.19
2018-02-22T15:53:39.088Z,65.28
2018-02-22T15:54:53.847Z,65.66
2018-02-22T15:56:08.538Z,65.28
2018-02-22T15:57:23.303Z,65.47
2018-02-22T15:58:37.335Z,65.47
2018-02-22T15:59:51.583Z,65.28
2018-02-22T16:01:05.864Z,65.47
2018-02-22T16:02:20.426Z,65.09
2018-02-22T16:03:34.423Z,65.47
2018-02-22T16:04:48.407Z,65.66